Latest Weather Observations for Mackay Airport

IDQ60801

Issued at 11:31 pm EST Friday 12 February 2016 (issued every 30 minutes, with the page automatically refreshed every 10 minutes)

About weather observations | Map of weather stations | Latest weather observations for QLD | Other Formats
Station Details ID: 033045 Name: MACKAY AERO Lat: -21.17 Lon: 149.18 Height: 4.7 m
Data from the previous 72 hours. | See also: Recent months at Mackay Airport
Date/Time
EST
Temp
°C
App
Temp
°C
Dew
Point
Rel
Hum
%
Delta-T
°C
Wind Press
QNH
hPa
Press
MSL
hPa
Rain
since 9 am
mm
Dir
 
Spd
km/h
Gust
km/h
Spd
kts
Gust
kts
12/11:30pm 24.1 27.5 22.7 92 0.9 SSW 9 13 5 7 1009.4 1009.4 0.0
12/11:00pm 25.0 27.6 22.7 87 1.6 S 13 17 7 9 1009.8 1009.8 0.0
12/10:30pm 25.9 28.5 22.6 82 2.2 SSE 13 19 7 10 1009.6 1009.6 0.0
12/10:00pm 25.3 28.2 22.4 84 1.9 S 11 17 6 9 1009.6 1009.6 0.0
12/09:30pm 26.5 27.8 22.6 79 2.6 SE 20 26 11 14 1009.4 1009.4 0.0
12/09:00pm 26.8 27.7 22.0 75 3.2 SE 20 26 11 14 1009.1 1009.1 0.0
12/08:30pm 27.2 28.2 22.2 74 3.4 ESE 20 30 11 16 1008.8 1008.8 0.0
12/08:00pm 27.0 27.5 22.6 77 3.0 ESE 24 32 13 17 1008.5 1008.5 0.0
12/07:30pm 27.1 27.6 22.7 77 3.0 ESE 24 32 13 17 1008.3 1008.3 0.0
12/07:00pm 27.3 27.5 22.0 73 3.6 SE 24 32 13 17 1008.0 1008.0 0.0
12/06:30pm 27.3 27.7 22.5 75 3.2 SE 24 30 13 16 1007.5 1007.5 0.0
12/06:00pm 27.7 28.0 22.2 72 3.7 ESE 24 35 13 19 1007.2 1007.2 0.0
12/05:30pm 28.4 26.9 20.9 64 5.0 ESE 30 37 16 20 1007.1 1007.1 0.0
12/05:00pm 28.7 27.6 21.7 66 4.7 ESE 30 39 16 21 1006.8 1006.8 0.0
12/04:30pm 28.7 28.1 22.0 67 4.5 ESE 28 35 15 19 1006.6 1006.6 0.0
12/04:00pm 28.8 28.1 21.8 66 4.7 ESE 28 35 15 19 1006.7 1006.7 0.0
12/03:30pm 29.3 29.1 22.0 64 4.9 ESE 26 35 14 19 1006.5 1006.5 0.0
12/03:00pm 29.2 29.0 22.7 68 4.4 ESE 28 35 15 19 1006.8 1006.8 0.0
12/02:30pm 29.0 28.2 21.7 64 4.9 ESE 28 37 15 20 1007.1 1007.1 0.0
12/02:00pm 29.2 28.3 22.2 66 4.7 ESE 30 37 16 20 1007.4 1007.4 0.0
12/01:30pm 29.3 28.8 22.8 68 4.4 ESE 30 35 16 19 1007.6 1007.6 0.0
12/01:00pm 29.2 29.0 22.7 68 4.4 ESE 28 35 15 19 1008.1 1008.1 0.0
12/12:30pm 29.6 30.0 24.5 74 3.6 ESE 30 37 16 20 1008.4 1008.4 0.0
12/12:00pm 28.5 27.5 22.0 68 4.4 ESE 30 37 16 20 1008.9 1008.9 0.0
12/11:30am 28.3 27.1 22.3 70 4.1 ESE 32 39 17 21 1009.2 1009.2 0.0
12/11:00am 28.9 28.4 23.6 73 3.7 ESE 32 37 17 20 1009.6 1009.6 0.0
12/10:30am 29.0 29.2 22.7 69 4.3 SE 26 33 14 18 1009.8 1009.8 0.0
12/10:00am 28.4 28.5 21.9 68 4.4 SE 24 32 13 17 1010.0 1010.0 0.0
12/09:30am 28.5 29.6 22.3 69 4.2 SSE 20 28 11 15 1010.0 1010.0 0.0
12/09:00am 27.9 28.7 22.4 72 3.7 S 22 32 12 17 1010.0 1010.0 0.0
12/08:30am 27.4 27.6 22.1 73 3.6 SSE 24 30 13 16 1010.1 1010.1 0.0
12/08:00am 26.7 27.8 22.3 77 3.0 S 20 30 11 16 1010.0 1010.0 0.0
12/07:30am 25.6 27.7 22.5 83 2.1 SSW 15 19 8 10 1009.9 1009.9 0.0
12/07:00am 24.6 28.0 22.7 89 1.3 SSW 9 13 5 7 1009.6 1009.6 0.0
12/06:30am 23.2 26.1 22.5 96 0.5 SW 11 13 6 7 1009.3 1009.3 0.0
12/06:00am 22.5 25.4 21.8 96 0.5 SW 9 13 5 7 1009.2 1009.2 0.0
12/05:30am 22.8 25.5 22.1 96 0.5 SW 11 13 6 7 1008.9 1008.9 0.0
12/05:00am 23.1 25.8 22.1 94 0.7 SSW 11 13 6 7 1008.7 1008.7 0.0
12/04:30am 24.4 26.3 22.7 90 1.1 S 17 20 9 11 1008.4 1008.4 0.0
12/04:00am 23.8 26.6 23.0 95 0.5 SSW 13 17 7 9 1008.5 1008.5 0.0
12/03:30am 23.8 27.0 23.1 96 0.5 SSW 11 15 6 8 1008.4 1008.4 0.0
12/03:00am 24.0 27.2 23.1 95 0.6 SSW 11 15 6 8 1008.2 1008.2 0.0
12/02:30am 24.1 27.0 23.2 95 0.6 SSW 13 13 7 7 1008.3 1008.3 0.0
12/02:00am 24.7 28.2 23.5 93 0.8 S 11 13 6 7 1008.5 1008.5 0.0
12/01:30am 24.6 28.0 23.4 93 0.8 SSW 11 13 6 7 1008.7 1008.7 0.0
12/01:00am 24.8 27.6 23.6 93 0.8 SSW 15 20 8 11 1009.0 1009.0 0.0
12/12:30am 24.8 27.2 23.0 90 1.2 SW 15 17 8 9 1009.3 1009.3 0.0
12/12:00am 26.7 27.9 22.5 78 2.8 SE 20 28 11 15 1009.4 1009.4 0.0
 
Date/Time
EST
Temp
°C
App
Temp
°C
Dew
Point
Rel
Hum
%
Delta-T
°C
Wind Press
QNH
hPa
Press
MSL
hPa
Rain
since 9 am
mm
Dir
 
Spd
km/h
Gust
km/h
Spd
kts
Gust
kts
11/11:30pm 25.6 29.3 23.3 87 1.6 S 9 15 5 8 1009.5 1009.5 0.0
11/11:00pm 26.9 28.2 22.7 78 2.8 SE 20 26 11 14 1009.8 1009.8 0.0
11/10:30pm 26.6 29.1 23.1 81 2.4 SSE 15 22 8 12 1009.8 1009.8 0.0
11/10:00pm 26.1 29.3 23.0 83 2.1 S 11 13 6 7 1009.7 1009.7 0.0
11/09:30pm 26.4 28.8 22.9 81 2.4 SSE 15 19 8 10 1009.7 1009.7 0.0
11/09:00pm 26.7 28.6 22.8 79 2.6 SE 17 20 9 11 1009.6 1009.6 0.0
11/08:30pm 26.3 27.9 22.8 81 2.4 SE 19 22 10 12 1009.4 1009.4 0.0
11/08:00pm 26.8 28.2 22.8 79 2.7 SE 20 26 11 14 1009.2 1009.2 0.0
11/07:30pm 26.8 28.1 22.4 77 3.0 SE 19 24 10 13 1008.7 1008.7 0.0
11/07:00pm 26.9 28.2 22.7 78 2.8 SE 20 26 11 14 1008.3 1008.3 0.0
11/06:30pm 27.3 28.4 22.3 74 3.4 ESE 20 28 11 15 1008.0 1008.0 0.0
11/06:00pm 27.6 28.3 22.3 73 3.6 ESE 22 28 12 15 1007.8 1007.8 0.0
11/05:30pm 28.0 28.4 22.5 72 3.7 ESE 24 30 13 16 1007.7 1007.7 0.0
11/05:00pm 28.0 28.2 22.0 70 4.0 ESE 24 30 13 16 1007.5 1007.5 0.0
11/04:30pm 28.4 28.5 21.9 68 4.4 SE 24 32 13 17 1007.4 1007.4 0.0
11/04:00pm 28.7 28.9 22.7 70 4.1 ESE 26 33 14 18 1007.3 1007.3 0.0
11/03:30pm 28.8 28.6 22.1 67 4.5 SE 26 33 14 18 1007.3 1007.3 0.0
11/03:00pm 29.0 28.9 22.2 66 4.6 SE 26 33 14 18 1007.5 1007.5 0.0
11/02:30pm 29.3 29.8 23.3 70 4.1 ESE 26 33 14 18 1007.6 1007.6 0.0
11/02:00pm 28.8 28.7 22.3 68 4.4 SE 26 32 14 17 1008.0 1008.0 0.0
11/01:30pm 28.8 28.9 22.5 68 4.3 SE 26 32 14 17 1008.4 1008.4 0.0
11/01:00pm 29.0 29.8 23.2 71 4.0 SE 24 30 13 16 1008.7 1008.7 0.0
11/12:30pm 28.5 28.2 22.5 70 4.1 SE 28 32 15 17 1009.0 1009.0 0.0
11/12:00pm 28.6 28.7 22.6 70 4.1 SE 26 33 14 18 1009.3 1009.3 0.0
11/11:30am 28.9 29.3 23.1 71 4.0 SE 26 33 14 18 1009.6 1009.6 0.0
11/11:00am 28.5 28.4 22.3 69 4.2 SE 26 35 14 19 1009.9 1009.9 0.0
11/10:30am 28.1 28.0 22.3 70 3.9 SE 26 33 14 18 1009.9 1009.9 0.0
11/10:00am 28.1 28.5 23.2 74 3.4 SSE 26 33 14 18 1009.9 1009.9 0.0
11/09:30am 27.3 29.2 24.4 84 2.0 SSE 22 32 12 17 1010.0 1010.0 0.0
11/09:00am 25.3 28.9 24.4 95 0.6 S 13 17 7 9 1010.0 1010.0 7.4
11/08:46am 24.5 27.9 24.0 97 0.3 S 13 17 7 9 1010.0 1010.0 7.4
11/08:30am 24.0 26.8 23.7 98 0.2 S 15 20 8 11 1010.0 1010.0 7.4
11/08:13am 23.9 26.7 23.0 95 0.6 SE 13 19 7 10 1010.0 1010.0 6.4
11/08:00am 24.0 28.0 23.7 98 0.2 ESE 9 15 5 8 1009.8 1009.8 6.4
11/07:41am 23.3 27.3 22.8 97 0.3 ESE 6 9 3 5 1009.7 1009.7 6.4
11/07:30am 23.1 27.4 22.6 97 0.3 ESE 4 7 2 4 1009.6 1009.6 6.4
11/07:03am 22.9 24.2 22.6 98 0.2 SSE 20 26 11 14 1009.7 1009.7 5.8
11/07:02am 23.0 24.3 22.7 98 0.2 SSE 20 26 11 14 1009.7 1009.7 5.4
11/07:00am 22.9 24.0 22.4 97 0.3 S 20 30 11 16 1009.4 1009.4 5.2
11/06:30am 23.0 23.1 22.5 97 0.3 SSE 26 39 14 21 1009.0 1009.0 4.4
11/06:22am 23.6 26.6 23.3 98 0.2 S 13 24 7 13 1008.9 1008.9 4.2
11/06:15am 23.6 27.0 23.3 98 0.2 S 11 17 6 9 1008.8 1008.8 4.2
11/06:00am 23.3 26.4 22.8 97 0.3 SE 11 17 6 9 1008.6 1008.6 4.0
11/05:55am 23.3 25.6 22.8 97 0.3 SSE 15 20 8 11 1008.6 1008.6 3.6
11/05:30am 23.5 25.2 23.0 97 0.3 S 19 26 10 14 1008.3 1008.3 2.8
11/05:00am 23.4 25.6 22.6 95 0.5 S 15 19 8 10 1008.0 1008.0 2.6
11/04:30am 23.9 24.2 23.0 95 0.6 SSE 26 35 14 19 1007.9 1007.9 2.6
11/04:00am 23.5 25.3 23.2 98 0.2 SSW 19 24 10 13 1007.5 1007.5 2.6
11/03:51am 23.4 25.4 22.9 97 0.3 SSW 17 24 9 13 1007.5 1007.5 2.6
11/03:31am 23.3 24.5 22.5 95 0.5 SSE 20 28 11 15 1007.8 1007.8 2.0
11/03:30am 23.4 24.7 22.6 95 0.5 S 20 30 11 16 1007.8 1007.8 2.0
11/03:00am 24.0 26.1 23.1 95 0.6 S 17 24 9 13 1007.7 1007.7 1.2
11/02:30am 24.4 26.2 23.2 93 0.8 S 19 26 10 14 1007.7 1007.7 1.0
11/02:18am 24.2 25.9 23.0 93 0.8 S 19 24 10 13 1007.8 1007.8 1.0
11/02:00am 23.9 26.3 23.0 95 0.6 S 15 22 8 12 1008.0 1008.0 1.0
11/01:58am 24.0 26.4 23.0 94 0.7 S 15 22 8 12 1008.1 1008.1 0.6
11/01:30am 24.4 26.7 22.8 91 1.1 SSW 15 20 8 11 1007.9 1007.9 0.0
11/01:00am 24.8 27.4 22.7 88 1.4 S 13 15 7 8 1008.1 1008.1 0.0
11/12:30am 25.1 26.3 22.2 84 1.9 S 19 30 10 16 1008.4 1008.4 0.0
11/12:00am 26.7 26.6 22.3 77 3.0 SE 26 33 14 18 1008.6 1008.6 0.0
 
Date/Time
EST
Temp
°C
App
Temp
°C
Dew
Point
Rel
Hum
%
Delta-T
°C
Wind Press
QNH
hPa
Press
MSL
hPa
Rain
since 9 am
mm
Dir
 
Spd
km/h
Gust
km/h
Spd
kts
Gust
kts
10/11:30pm 26.8 26.7 22.2 76 3.1 SE 26 35 14 19 1009.2 1009.2 0.0
10/11:00pm 26.9 27.1 22.7 78 2.8 SE 26 32 14 17 1009.7 1009.7 0.0
10/10:30pm 26.9 27.1 22.7 78 2.8 SE 26 32 14 17 1009.8 1009.8 0.0
10/10:00pm 26.9 26.8 22.3 76 3.1 SE 26 33 14 18 1009.9 1009.9 0.0
10/09:30pm 26.9 26.5 21.6 72 3.5 SE 26 35 14 19 1009.8 1009.8 0.0
10/09:00pm 27.0 26.2 21.7 73 3.5 ESE 28 35 15 19 1009.7 1009.7 0.0
10/08:30pm 27.0 27.3 22.2 75 3.2 SE 24 32 13 17 1009.5 1009.5 0.0
10/08:00pm 27.2 28.1 22.6 76 3.1 SE 22 32 12 17 1009.5 1009.5 0.0
10/07:30pm 27.1 27.4 22.3 75 3.2 ESE 24 32 13 17 1009.0 1009.0 0.0
10/07:00pm 27.1 27.6 21.2 70 3.9 SE 20 24 11 13 1008.6 1008.6 0.0
10/06:30pm 27.4 28.2 21.4 70 4.0 SE 19 24 10 13 1008.4 1008.4 0.0
10/06:00pm 27.6 26.2 20.4 65 4.7 SE 28 37 15 20 1008.0 1008.0 0.0
10/05:30pm 27.5 25.9 21.8 71 3.8 SE 33 43 18 23 1007.8 1007.8 0.0
10/05:00pm 27.2 25.7 21.7 72 3.7 SE 32 43 17 23 1007.7 1007.7 0.0
10/04:30pm 28.2 27.1 21.7 68 4.4 SE 30 35 16 19 1007.6 1007.6 0.0
10/04:00pm 28.3 26.8 21.8 68 4.4 SE 32 39 17 21 1007.6 1007.6 0.0
10/03:30pm 29.1 28.1 22.6 68 4.4 SE 32 39 17 21 1007.7 1007.7 0.0
10/03:00pm 28.9 27.7 22.2 67 4.5 SE 32 37 17 20 1007.8 1007.8 0.0
10/02:30pm 29.1 28.9 22.8 69 4.3 SE 28 37 15 20 1008.0 1008.0 0.0
10/02:00pm 28.7 28.1 22.0 67 4.5 SE 28 37 15 20 1008.3 1008.3 0.0
10/01:30pm 29.0 29.1 22.5 68 4.4 SE 26 32 14 17 1008.7 1008.7 0.0
10/01:00pm 29.1 28.5 22.6 68 4.4 SE 30 39 16 21 1008.9 1008.9 0.0
10/12:30pm 29.0 29.0 23.0 70 4.1 SE 28 35 15 19 1009.2 1009.2 0.0
10/12:00pm 28.4 27.8 21.9 68 4.4 SE 28 35 15 19 1009.5 1009.5 0.0
10/11:30am 28.4 27.9 22.2 69 4.2 SE 28 35 15 19 1010.0 1010.0 0.0
10/11:00am 27.7 27.1 22.0 71 3.8 SE 28 35 15 19 1010.0 1010.0 0.0
10/10:30am 27.9 26.9 21.9 70 4.0 SE 30 39 16 21 1010.1 1010.1 0.0
10/10:00am 27.9 27.8 22.2 71 3.8 SSE 26 35 14 19 1010.0 1010.0 0.0
10/09:30am 27.6 27.9 22.3 73 3.6 SSE 24 30 13 16 1010.1 1010.1 0.0
10/09:00am 26.7 26.3 22.3 77 3.0 SSE 28 35 15 19 1010.2 1010.2 5.6
10/08:30am 26.2 26.1 21.4 75 3.2 SSE 24 33 13 18 1010.0 1010.0 5.6
10/08:00am 25.8 26.2 21.7 78 2.7 SSE 22 32 12 17 1009.7 1009.7 5.6
10/07:30am 25.5 26.2 21.6 79 2.6 SSE 20 28 11 15 1009.4 1009.4 5.6
10/07:00am 24.1 25.0 21.6 86 1.7 SSE 19 24 10 13 1009.3 1009.3 5.6
10/06:30am 23.5 25.1 21.4 88 1.4 S 15 20 8 11 1009.2 1009.2 5.6
10/06:00am 23.4 25.0 21.5 89 1.3 S 15 20 8 11 1008.8 1008.8 5.6
10/05:30am 23.3 24.9 21.4 89 1.3 S 15 20 8 11 1008.5 1008.5 5.6
10/05:00am 23.6 24.8 21.5 88 1.4 S 17 22 9 12 1008.1 1008.1 5.6
10/04:30am 23.7 24.7 21.8 89 1.3 S 19 24 10 13 1007.9 1007.9 5.6
10/04:00am 23.9 25.4 22.0 89 1.3 S 17 22 9 12 1007.8 1007.8 5.6
10/03:30am 24.5 25.8 21.6 84 1.9 S 17 22 9 12 1007.9 1007.9 5.6
10/03:00am 26.3 24.0 20.6 71 3.7 SE 33 44 18 24 1007.9 1007.9 5.6
10/02:30am 26.4 24.6 21.6 75 3.2 SE 33 46 18 25 1008.1 1008.1 5.6
10/02:00am 26.2 25.2 22.7 81 2.4 SE 32 39 17 21 1008.2 1008.2 5.6
10/01:30am 26.5 24.3 21.5 74 3.3 ESE 35 43 19 23 1008.6 1008.6 5.6
10/01:00am 26.7 25.3 22.3 77 3.0 SE 33 46 18 25 1009.0 1009.0 5.6
10/12:30am 26.5 25.2 22.1 77 3.0 SE 32 44 17 24 1009.3 1009.3 5.6
10/12:00am 26.8 24.7 21.6 73 3.5 SE 35 44 19 24 1009.6 1009.6 5.6

Other Formats:

Comma delimited format used in spreadsheet applications
http://www.bom.gov.au/fwo/IDQ60801/IDQ60801.95367.axf

JavaScript Object Notation format (JSON) in row-major order
http://www.bom.gov.au/fwo/IDQ60801/IDQ60801.95367.json